ΕΜΥ, Εθνική Μετεωρολογική Υπηρεσία - Δελτία Καιρού, Προγνώσεις

ΑΕΡΟΝΑΥΤΙΛΙΑ

GREEK AIRPORTS CODES

LGAV 191720Z 17010KT 9000 -RA FEW015TCU SCT020 OVC070 16/12Q1004 NOSIG=

EUROPEAN AIRPORTS CODES

LFPO 191730Z 30013KT 270V020 2500 R25/1400D +SHRA FEW022SCT041CB BKN043 11/08 Q1017 TEMPO BKN025CB=